createdAt,value
2018-05-10T00:00:12.903Z,38.20
2018-05-10T00:01:12.888Z,40.30
2018-05-10T00:02:12.867Z,42.10
2018-05-10T00:03:12.859Z,40.20
2018-05-10T00:04:12.849Z,43.90
2018-05-10T00:05:12.831Z,42.10
2018-05-10T00:06:12.819Z,42.50
2018-05-10T00:07:12.803Z,42.20
2018-05-10T00:08:12.786Z,43.00
2018-05-10T00:09:12.769Z,44.10
2018-05-10T00:10:12.759Z,43.20
2018-05-10T00:11:12.738Z,43.40
2018-05-10T00:12:12.726Z,43.60
2018-05-10T00:13:12.712Z,43.10
2018-05-10T00:14:12.698Z,45.70
2018-05-10T00:15:12.684Z,42.00
2018-05-10T00:16:12.667Z,43.90
2018-05-10T00:17:12.660Z,45.30
2018-05-10T00:18:12.642Z,48.70
2018-05-10T00:19:12.624Z,45.50
2018-05-10T00:20:12.615Z,46.30
2018-05-10T00:21:12.599Z,46.40
2018-05-10T00:22:12.581Z,45.50
2018-05-10T00:23:12.566Z,47.30
2018-05-10T00:24:12.558Z,48.70
2018-05-10T00:25:12.549Z,46.60
2018-05-10T00:26:12.524Z,50.40
2018-05-10T00:27:12.510Z,47.20
2018-05-10T00:28:12.519Z,47.50
2018-05-10T00:29:12.486Z,48.70
2018-05-10T00:30:12.459Z,47.50
2018-05-10T00:31:12.451Z,49.70
2018-05-10T00:32:12.434Z,47.80
2018-05-10T00:33:12.418Z,48.70
2018-05-10T00:34:12.408Z,49.80
2018-05-10T00:35:12.387Z,50.40
2018-05-10T00:36:12.376Z,51.10
2018-05-10T00:37:12.360Z,49.10
2018-05-10T00:38:12.344Z,50.50
2018-05-10T00:39:12.331Z,48.60
2018-05-10T00:40:12.315Z,50.80
2018-05-10T00:41:12.307Z,48.20
2018-05-10T00:42:12.287Z,49.60
2018-05-10T00:43:12.269Z,49.00
2018-05-10T00:44:12.255Z,49.00
2018-05-10T00:45:12.236Z,49.50
2018-05-10T00:46:12.227Z,47.70
2018-05-10T00:47:12.223Z,46.80
2018-05-10T00:48:12.210Z,46.20
2018-05-10T00:49:12.179Z,45.70
2018-05-10T00:50:12.169Z,46.70
2018-05-10T00:51:12.156Z,46.10
2018-05-10T00:52:12.140Z,46.20
2018-05-10T00:53:12.124Z,47.90
2018-05-10T00:54:12.107Z,46.30
2018-05-10T00:55:12.091Z,47.30
2018-05-10T00:56:12.075Z,47.00
2018-05-10T00:57:12.062Z,45.80
2018-05-10T00:58:12.044Z,49.00
2018-05-10T00:59:12.033Z,47.40
2018-05-10T01:00:12.017Z,47.00
2018-05-10T01:01:12.002Z,46.90
2018-05-10T01:02:11.997Z,47.60
2018-05-10T01:03:11.969Z,49.00
2018-05-10T01:04:11.956Z,48.30
2018-05-10T01:05:11.948Z,46.30
2018-05-10T01:06:11.930Z,47.20
2018-05-10T01:07:11.908Z,46.10
2018-05-10T01:08:11.896Z,44.60
2018-05-10T01:09:11.880Z,46.90
2018-05-10T01:10:11.862Z,45.40
2018-05-10T01:11:11.846Z,46.70
2018-05-10T01:12:11.832Z,47.20
2018-05-10T01:13:11.853Z,44.80
2018-05-10T01:14:11.801Z,45.60
2018-05-10T01:15:11.789Z,42.90
2018-05-10T01:16:11.768Z,44.50
2018-05-10T01:17:11.755Z,43.30
2018-05-10T01:18:11.739Z,45.10
2018-05-10T01:19:11.725Z,45.20
2018-05-10T01:20:11.711Z,43.30
2018-05-10T01:21:11.695Z,41.80
2018-05-10T01:22:11.679Z,42.70
2018-05-10T01:23:11.660Z,43.70
2018-05-10T01:24:11.655Z,42.30
2018-05-10T01:25:11.635Z,42.70
2018-05-10T01:26:11.621Z,42.90
2018-05-10T01:27:11.602Z,42.70
2018-05-10T01:28:11.586Z,41.50
2018-05-10T01:29:11.577Z,42.50
2018-05-10T01:30:11.557Z,42.50
2018-05-10T01:31:11.539Z,43.90
2018-05-10T01:32:11.527Z,44.10
2018-05-10T01:33:11.509Z,44.30
2018-05-10T01:34:11.507Z,44.40
2018-05-10T01:35:11.500Z,44.70
2018-05-10T01:36:11.467Z,43.70
2018-05-10T01:37:11.447Z,44.30
2018-05-10T01:38:11.438Z,44.00
2018-05-10T01:39:11.420Z,45.90
2018-05-10T01:40:11.404Z,43.20
2018-05-10T01:41:11.389Z,44.10
2018-05-10T01:42:11.373Z,45.10
2018-05-10T01:43:11.356Z,45.50
2018-05-10T01:44:11.341Z,46.00
2018-05-10T01:45:11.333Z,46.20
2018-05-10T01:46:11.312Z,43.70
2018-05-10T01:47:11.293Z,47.90
2018-05-10T01:48:11.281Z,47.50
2018-05-10T01:49:11.279Z,47.30
2018-05-10T01:50:11.241Z,46.20
2018-05-10T01:51:11.222Z,45.90
2018-05-10T01:52:11.209Z,47.90
2018-05-10T01:53:11.211Z,47.00
2018-05-10T01:54:11.182Z,47.00
2018-05-10T01:55:11.167Z,45.60
2018-05-10T01:56:11.149Z,46.80
2018-05-10T01:57:11.141Z,45.10
2018-05-10T01:58:11.121Z,46.70
2018-05-10T01:59:11.103Z,45.50
2018-05-10T02:00:11.086Z,46.60
2018-05-10T02:01:11.069Z,44.70
2018-05-10T02:02:11.057Z,44.20
2018-05-10T02:03:11.054Z,42.90
2018-05-10T02:04:11.022Z,44.80
2018-05-10T02:05:11.005Z,44.40
2018-05-10T02:06:10.990Z,44.30
2018-05-10T02:07:10.977Z,45.30
2018-05-10T02:08:10.959Z,43.80
2018-05-10T02:09:10.944Z,43.70
2018-05-10T02:10:10.931Z,41.70
2018-05-10T02:11:10.910Z,42.50
2018-05-10T02:12:10.894Z,42.00
2018-05-10T02:13:10.878Z,43.50
2018-05-10T02:14:10.878Z,41.90
2018-05-10T02:15:10.851Z,42.10
2018-05-10T02:16:10.831Z,43.70
2018-05-10T02:17:10.816Z,43.20
2018-05-10T02:18:10.799Z,40.70
2018-05-10T02:19:10.789Z,40.70
2018-05-10T02:20:10.766Z,40.40
2018-05-10T02:21:10.751Z,40.40
2018-05-10T02:22:10.733Z,38.90
2018-05-10T02:23:10.717Z,40.30
2018-05-10T02:24:10.704Z,38.40
2018-05-10T02:25:10.686Z,39.70
2018-05-10T02:26:10.670Z,38.00
2018-05-10T02:27:10.651Z,37.20
2018-05-10T02:28:10.638Z,37.50
2018-05-10T02:29:10.621Z,35.60
2018-05-10T02:30:10.619Z,35.30
2018-05-10T02:31:10.594Z,36.00
2018-05-10T02:32:10.573Z,36.30
2018-05-10T02:33:10.557Z,36.10
2018-05-10T02:34:10.547Z,37.30
2018-05-10T02:35:10.519Z,35.50
2018-05-10T02:36:10.504Z,38.50
2018-05-10T02:37:10.491Z,35.00
2018-05-10T02:38:10.475Z,34.40
2018-05-10T02:39:10.457Z,35.50
2018-05-10T02:40:10.446Z,36.30
2018-05-10T02:41:10.430Z,33.20
2018-05-10T02:42:10.408Z,34.90
2018-05-10T02:43:10.389Z,32.00
2018-05-10T02:44:10.373Z,35.20
2018-05-10T02:45:10.359Z,33.20
2018-05-10T02:46:10.342Z,34.80
2018-05-10T02:47:10.325Z,34.10
2018-05-10T02:48:10.308Z,32.20
2018-05-10T02:49:10.290Z,31.60
2018-05-10T02:50:10.273Z,32.20
2018-05-10T02:51:10.271Z,31.30
2018-05-10T02:52:10.242Z,30.00
2018-05-10T02:53:10.225Z,29.20
2018-05-10T02:54:10.206Z,29.60
2018-05-10T02:55:10.191Z,28.40
2018-05-10T02:56:10.184Z,27.90
2018-05-10T02:57:10.156Z,29.40
2018-05-10T02:58:10.142Z,28.80
2018-05-10T02:59:10.123Z,27.80
2018-05-10T03:00:10.101Z,27.80
2018-05-10T03:01:10.084Z,26.80
2018-05-10T03:02:10.081Z,27.10
2018-05-10T03:03:10.051Z,26.20
2018-05-10T03:04:10.037Z,25.40
2018-05-10T03:05:10.022Z,24.90
2018-05-10T03:06:10.006Z,25.70
2018-05-10T03:07:09.981Z,25.80
2018-05-10T03:08:09.988Z,24.00
2018-05-10T03:09:09.968Z,23.90
2018-05-10T03:10:09.939Z,25.70
2018-05-10T03:11:09.918Z,24.00
2018-05-10T03:12:09.899Z,22.50
2018-05-10T03:13:09.883Z,24.80
2018-05-10T03:14:09.889Z,23.20
2018-05-10T03:15:09.864Z,23.30
2018-05-10T03:16:09.851Z,23.70
2018-05-10T03:17:09.840Z,22.90
2018-05-10T03:18:09.795Z,23.30
2018-05-10T03:19:09.801Z,22.30
2018-05-10T03:20:09.840Z,21.70
2018-05-10T03:21:09.773Z,21.70
2018-05-10T03:22:09.761Z,21.90
2018-05-10T03:23:09.711Z,21.70
2018-05-10T03:24:09.700Z,22.80
2018-05-10T03:25:09.689Z,22.00
2018-05-10T03:26:09.672Z,23.30
2018-05-10T03:27:09.643Z,22.50
2018-05-10T03:28:09.623Z,22.60
2018-05-10T03:29:09.617Z,22.60
2018-05-10T03:30:09.636Z,22.80
2018-05-10T03:31:09.615Z,22.70
2018-05-10T03:32:09.566Z,23.20
2018-05-10T03:33:09.550Z,22.20
2018-05-10T03:34:09.577Z,22.50
2018-05-10T03:35:09.526Z,21.90
2018-05-10T03:36:09.491Z,23.40
2018-05-10T03:37:09.472Z,21.70
2018-05-10T03:38:09.466Z,21.10
2018-05-10T03:39:09.453Z,21.30
2018-05-10T03:40:09.446Z,21.50
2018-05-10T03:41:09.407Z,20.40
2018-05-10T03:42:09.402Z,19.80
2018-05-10T03:43:09.389Z,19.70
2018-05-10T03:44:09.353Z,20.30
2018-05-10T03:45:09.366Z,20.10
2018-05-10T03:46:09.378Z,20.50
2018-05-10T03:47:09.320Z,22.80
2018-05-10T03:48:09.312Z,19.50
2018-05-10T03:49:09.291Z,19.10
2018-05-10T03:50:09.274Z,20.20
2018-05-10T03:51:09.278Z,20.10
2018-05-10T03:52:09.235Z,22.80
2018-05-10T03:53:09.196Z,27.00
2018-05-10T03:54:09.184Z,25.10
2018-05-10T03:55:09.182Z,22.10
2018-05-10T03:56:09.156Z,23.40
2018-05-10T03:57:09.131Z,22.30
2018-05-10T03:58:09.131Z,23.50
2018-05-10T03:59:09.107Z,23.10
2018-05-10T04:00:09.102Z,25.60
2018-05-10T04:01:09.080Z,25.00
2018-05-10T04:02:09.045Z,26.50
2018-05-10T04:03:09.028Z,24.30
2018-05-10T04:04:09.033Z,24.70
2018-05-10T04:05:08.990Z,23.90
2018-05-10T04:06:09.132Z,25.00
2018-05-10T04:07:08.958Z,25.00
2018-05-10T04:08:08.946Z,25.70
2018-05-10T04:09:08.945Z,26.00
2018-05-10T04:10:08.965Z,27.10
2018-05-10T04:11:08.898Z,25.80
2018-05-10T04:12:08.883Z,26.10
2018-05-10T04:13:08.866Z,28.90
2018-05-10T04:14:08.876Z,27.20
2018-05-10T04:15:08.822Z,28.30
2018-05-10T04:16:08.843Z,26.70
2018-05-10T04:17:08.810Z,29.30
2018-05-10T04:18:08.812Z,28.50
2018-05-10T04:19:08.759Z,27.80
2018-05-10T04:20:08.738Z,29.80
2018-05-10T04:21:08.751Z,30.60
2018-05-10T04:22:08.731Z,31.60
2018-05-10T04:23:08.680Z,32.30
2018-05-10T04:24:08.661Z,30.50
2018-05-10T04:25:08.657Z,31.60
2018-05-10T04:26:08.631Z,31.70
2018-05-10T04:27:08.615Z,31.70
2018-05-10T04:28:08.597Z,33.70
2018-05-10T04:29:08.576Z,32.50
2018-05-10T04:30:08.567Z,32.40
2018-05-10T04:31:08.565Z,32.80
2018-05-10T04:32:08.561Z,34.70
2018-05-10T04:33:08.547Z,33.10
2018-05-10T04:34:08.506Z,32.80
2018-05-10T04:35:08.548Z,33.20
2018-05-10T04:36:08.499Z,33.20
2018-05-10T04:37:08.452Z,33.30
2018-05-10T04:38:08.438Z,31.30
2018-05-10T04:39:08.421Z,32.90
2018-05-10T04:40:08.379Z,31.80
2018-05-10T04:41:08.396Z,34.00
2018-05-10T04:42:08.395Z,34.80
2018-05-10T04:43:08.352Z,33.30
2018-05-10T04:44:08.335Z,33.10
2018-05-10T04:45:08.319Z,33.70
2018-05-10T04:46:08.326Z,33.20
2018-05-10T04:47:08.277Z,32.30
2018-05-10T04:48:08.255Z,33.90
2018-05-10T04:49:08.261Z,32.70
2018-05-10T04:50:08.210Z,32.40
2018-05-10T04:51:08.223Z,31.10
2018-05-10T04:52:08.185Z,31.70
2018-05-10T04:53:08.185Z,31.40
2018-05-10T04:54:08.150Z,31.10
2018-05-10T04:55:08.126Z,32.80
2018-05-10T04:56:08.121Z,31.90
2018-05-10T04:57:08.089Z,31.30
2018-05-10T04:58:08.069Z,30.80
2018-05-10T04:59:08.055Z,30.30
2018-05-10T05:00:08.068Z,31.90
2018-05-10T05:01:08.063Z,32.90
2018-05-10T05:02:08.036Z,32.10
2018-05-10T05:03:07.988Z,30.30
2018-05-10T05:04:07.966Z,29.90
2018-05-10T05:05:07.957Z,30.10
2018-05-10T05:06:07.951Z,31.00
2018-05-10T05:07:07.918Z,30.60
2018-05-10T05:08:07.913Z,30.40
2018-05-10T05:09:07.963Z,31.90
2018-05-10T05:10:07.866Z,33.80
2018-05-10T05:11:07.846Z,31.20
2018-05-10T05:12:07.831Z,31.90
2018-05-10T05:13:07.828Z,30.20
2018-05-10T05:14:07.809Z,32.10
2018-05-10T05:15:07.789Z,29.70
2018-05-10T05:16:07.773Z,32.00
2018-05-10T05:17:07.738Z,31.00
2018-05-10T05:18:07.725Z,32.60
2018-05-10T05:19:07.730Z,30.10
2018-05-10T05:20:07.707Z,32.50
2018-05-10T05:21:07.689Z,31.90
2018-05-10T05:22:07.651Z,31.40
2018-05-10T05:23:07.650Z,29.90
2018-05-10T05:24:07.613Z,31.60
2018-05-10T05:25:07.600Z,30.50
2018-05-10T05:26:07.579Z,31.90
2018-05-10T05:27:07.565Z,28.90
2018-05-10T05:28:07.545Z,29.80
2018-05-10T05:29:07.557Z,29.70
2018-05-10T05:30:07.513Z,28.60
2018-05-10T05:31:07.507Z,30.40
2018-05-10T05:32:07.479Z,29.70
2018-05-10T05:33:07.468Z,29.30
2018-05-10T05:34:07.449Z,30.50
2018-05-10T05:35:07.424Z,30.00
2018-05-10T05:36:07.426Z,29.50
2018-05-10T05:37:07.418Z,31.00
2018-05-10T05:38:07.441Z,31.80
2018-05-10T05:39:07.369Z,29.70
2018-05-10T05:40:07.360Z,32.10
2018-05-10T05:41:07.347Z,28.80
2018-05-10T05:42:07.379Z,31.10
2018-05-10T05:43:07.374Z,30.70
2018-05-10T05:44:07.307Z,28.40
2018-05-10T05:45:07.247Z,29.20
2018-05-10T05:46:07.259Z,29.80
2018-05-10T05:47:07.255Z,29.80
2018-05-10T05:48:07.223Z,28.70
2018-05-10T05:49:07.192Z,30.60
2018-05-10T05:50:07.175Z,29.40
2018-05-10T05:51:07.175Z,28.90
2018-05-10T05:52:07.142Z,29.50
2018-05-10T05:53:07.147Z,28.20
2018-05-10T05:54:07.098Z,27.90
2018-05-10T05:55:07.137Z,28.80
2018-05-10T05:56:07.093Z,30.00
2018-05-10T05:57:07.083Z,26.90
2018-05-10T05:58:07.035Z,28.60
2018-05-10T05:59:07.041Z,26.70
2018-05-10T06:00:07.005Z,26.30
2018-05-10T06:01:07.002Z,27.50
2018-05-10T06:02:06.978Z,26.90
2018-05-10T06:03:07.023Z,27.00
2018-05-10T06:04:06.938Z,29.80
2018-05-10T06:05:07.047Z,26.70
2018-05-10T06:06:06.898Z,25.90
2018-05-10T06:07:06.903Z,24.60
2018-05-10T06:08:06.871Z,24.50
2018-05-10T06:09:06.910Z,23.90
2018-05-10T06:10:06.894Z,25.50
2018-05-10T06:11:06.829Z,24.60
2018-05-10T06:12:06.837Z,24.80
2018-05-10T06:13:06.805Z,22.50
2018-05-10T06:14:06.764Z,23.20
2018-05-10T06:15:06.743Z,23.00
2018-05-10T06:16:06.738Z,25.80
2018-05-10T06:17:06.752Z,25.90
2018-05-10T06:18:06.698Z,27.10
2018-05-10T06:19:06.679Z,22.60
2018-05-10T06:20:06.669Z,25.90
2018-05-10T06:21:06.650Z,23.70
2018-05-10T06:22:06.643Z,25.60
2018-05-10T06:23:06.605Z,24.60
2018-05-10T06:24:06.584Z,23.80
2018-05-10T06:25:06.691Z,22.00
2018-05-10T06:26:06.579Z,22.10
2018-05-10T06:27:06.537Z,22.40
2018-05-10T06:28:06.540Z,21.90
2018-05-10T06:29:06.500Z,22.70
2018-05-10T06:30:06.491Z,22.40
2018-05-10T06:31:06.469Z,20.70
2018-05-10T06:32:06.459Z,24.60
2018-05-10T06:33:06.438Z,22.50
2018-05-10T06:34:06.477Z,20.50
2018-05-10T06:35:06.416Z,21.20
2018-05-10T06:36:06.390Z,24.30
2018-05-10T06:37:06.385Z,21.20
2018-05-10T06:38:06.369Z,24.10
2018-05-10T06:39:06.392Z,21.60
2018-05-10T06:40:06.338Z,22.70
2018-05-10T06:41:06.305Z,22.40
2018-05-10T06:42:06.297Z,19.30
2018-05-10T06:43:06.273Z,20.50
2018-05-10T06:44:06.273Z,20.20
2018-05-10T06:45:06.239Z,19.30
2018-05-10T06:46:06.239Z,22.00
2018-05-10T06:47:06.210Z,18.10
2018-05-10T06:48:06.196Z,19.40
2018-05-10T06:49:06.174Z,21.20
2018-05-10T06:50:06.164Z,22.20
2018-05-10T06:51:06.149Z,21.30
2018-05-10T06:52:06.134Z,19.60
2018-05-10T06:53:06.117Z,19.40
2018-05-10T06:54:06.096Z,17.00
2018-05-10T06:55:06.084Z,19.50
2018-05-10T06:56:06.071Z,18.60
2018-05-10T06:57:06.067Z,18.10
2018-05-10T06:58:06.040Z,17.70
2018-05-10T06:59:06.021Z,17.40
2018-05-10T07:00:06.019Z,15.50
2018-05-10T07:01:06.001Z,17.30
2018-05-10T07:02:05.988Z,16.80
2018-05-10T07:03:05.957Z,14.20
2018-05-10T07:04:05.943Z,16.00
2018-05-10T07:05:05.926Z,14.10
2018-05-10T07:06:05.913Z,15.60
2018-05-10T07:07:05.894Z,15.20
2018-05-10T07:08:05.883Z,14.30
2018-05-10T07:09:05.883Z,15.00
2018-05-10T07:10:05.854Z,14.60
2018-05-10T07:11:05.837Z,16.20
2018-05-10T07:12:05.861Z,15.20
2018-05-10T07:13:05.846Z,13.30
2018-05-10T07:14:05.809Z,16.20
2018-05-10T07:15:05.804Z,15.60
2018-05-10T07:16:05.775Z,13.90
2018-05-10T07:17:05.748Z,16.30
2018-05-10T07:18:05.751Z,15.50
2018-05-10T07:19:05.726Z,14.00
2018-05-10T07:20:05.709Z,14.00
2018-05-10T07:21:05.687Z,12.90
2018-05-10T07:22:05.689Z,12.60
2018-05-10T07:23:05.677Z,11.60
2018-05-10T07:24:05.678Z,12.00
2018-05-10T07:25:05.733Z,12.50
2018-05-10T07:26:05.624Z,11.90
2018-05-10T07:27:05.610Z,12.00
2018-05-10T07:28:05.595Z,11.70
2018-05-10T07:29:05.591Z,14.00
2018-05-10T07:30:05.561Z,11.00
2018-05-10T07:31:05.592Z,12.80
2018-05-10T07:32:05.536Z,12.40
2018-05-10T07:33:05.531Z,10.50
2018-05-10T07:34:05.505Z,12.30
2018-05-10T07:35:05.493Z,14.20
2018-05-10T07:36:05.501Z,13.50
2018-05-10T07:37:05.490Z,13.70
2018-05-10T07:38:05.466Z,13.20
2018-05-10T07:39:05.456Z,13.00
2018-05-10T07:40:05.419Z,13.60
2018-05-10T07:41:05.402Z,13.40
2018-05-10T07:42:05.487Z,9.10
2018-05-10T07:43:05.375Z,11.40
2018-05-10T07:44:05.376Z,11.40
2018-05-10T07:45:05.372Z,10.70
2018-05-10T07:46:05.332Z,11.80
2018-05-10T07:47:05.321Z,10.50
2018-05-10T07:48:05.297Z,11.90
2018-05-10T07:49:05.293Z,8.90
2018-05-10T07:50:05.277Z,9.60
2018-05-10T07:51:05.261Z,11.30
2018-05-10T07:52:05.249Z,9.20
2018-05-10T07:53:05.303Z,11.40
2018-05-10T07:54:05.215Z,10.60
2018-05-10T07:55:05.203Z,11.00
2018-05-10T07:56:05.191Z,13.00
2018-05-10T07:57:05.179Z,12.10
2018-05-10T07:58:05.161Z,11.40
2018-05-10T07:59:05.145Z,11.90
2018-05-10T08:00:05.129Z,12.50
2018-05-10T08:01:05.118Z,9.50
2018-05-10T08:02:05.101Z,11.80
2018-05-10T08:03:05.111Z,12.90
2018-05-10T08:04:05.096Z,10.90
2018-05-10T08:05:05.079Z,11.80
2018-05-10T08:06:05.054Z,11.10
2018-05-10T08:07:05.038Z,10.90
2018-05-10T08:08:05.025Z,11.70
2018-05-10T08:09:05.040Z,11.40
2018-05-10T08:10:05.078Z,12.20
2018-05-10T08:11:04.982Z,9.80
2018-05-10T08:12:04.970Z,11.00
2018-05-10T08:13:04.999Z,12.30
2018-05-10T08:14:04.958Z,11.50
2018-05-10T08:15:04.918Z,9.20
2018-05-10T08:16:04.909Z,15.60
2018-05-10T08:17:04.977Z,11.80
2018-05-10T08:18:04.902Z,11.90
2018-05-10T08:19:04.872Z,11.20
2018-05-10T08:20:04.866Z,11.10
2018-05-10T08:21:04.852Z,12.60
2018-05-10T08:22:04.848Z,15.80
2018-05-10T08:23:04.812Z,14.50
2018-05-10T08:24:04.813Z,13.70
2018-05-10T08:25:04.800Z,18.00
2018-05-10T08:26:04.776Z,15.80
2018-05-10T08:27:04.774Z,14.10
2018-05-10T08:28:04.763Z,18.90
2018-05-10T08:29:04.787Z,24.00
2018-05-10T08:30:04.737Z,23.00
2018-05-10T08:31:04.718Z,18.20
2018-05-10T08:32:04.731Z,26.00
2018-05-10T08:33:04.708Z,20.50
2018-05-10T08:34:04.682Z,13.20
2018-05-10T08:35:04.656Z,12.40
2018-05-10T08:36:04.641Z,15.40
2018-05-10T08:37:04.644Z,17.20
2018-05-10T08:38:04.632Z,13.00
2018-05-10T08:39:04.599Z,17.80
2018-05-10T08:40:04.580Z,15.80
2018-05-10T08:41:04.559Z,17.60
2018-05-10T08:42:04.550Z,15.70
2018-05-10T08:43:04.535Z,16.40
2018-05-10T08:44:04.522Z,18.60
2018-05-10T08:45:04.546Z,19.50
2018-05-10T08:46:04.517Z,16.60
2018-05-10T08:47:04.483Z,13.30
2018-05-10T08:48:04.492Z,13.90
2018-05-10T08:49:04.458Z,15.20
2018-05-10T08:50:04.450Z,15.20
2018-05-10T08:51:04.422Z,16.70
2018-05-10T08:52:04.483Z,13.90
2018-05-10T08:53:04.394Z,15.30
2018-05-10T08:54:04.384Z,15.20
2018-05-10T08:55:04.374Z,17.70
2018-05-10T08:56:04.352Z,16.40
2018-05-10T08:57:04.342Z,18.50
2018-05-10T08:58:04.327Z,17.40
2018-05-10T08:59:04.314Z,17.50
2018-05-10T09:00:04.311Z,22.80
2018-05-10T09:01:04.282Z,19.70
2018-05-10T09:02:04.296Z,16.60
2018-05-10T09:03:04.252Z,17.70
2018-05-10T09:04:04.248Z,19.70
2018-05-10T09:05:04.236Z,18.90
2018-05-10T09:06:04.211Z,17.60
2018-05-10T09:07:04.201Z,16.20
2018-05-10T09:08:04.181Z,13.70
2018-05-10T09:09:04.199Z,14.50
2018-05-10T09:10:04.160Z,13.20
2018-05-10T09:11:04.145Z,11.00
2018-05-10T09:12:04.151Z,11.90
2018-05-10T09:13:04.149Z,13.10
2018-05-10T09:14:04.129Z,12.10
2018-05-10T09:15:04.091Z,11.70
2018-05-10T09:16:04.105Z,12.50
2018-05-10T09:17:04.104Z,12.60
2018-05-10T09:18:04.094Z,12.20
2018-05-10T09:19:04.050Z,12.50
2018-05-10T09:20:04.039Z,10.30
2018-05-10T09:21:04.073Z,13.10
2018-05-10T09:22:03.993Z,11.80
2018-05-10T09:23:04.016Z,11.80
2018-05-10T09:24:03.995Z,10.80
2018-05-10T09:25:04.013Z,11.40
2018-05-10T09:26:04.018Z,9.00
2018-05-10T09:27:03.935Z,8.70
2018-05-10T09:28:03.950Z,8.00
2018-05-10T09:29:03.914Z,8.90
2018-05-10T09:30:03.937Z,6.60
2018-05-10T09:31:03.894Z,6.50
2018-05-10T09:32:03.926Z,7.10
2018-05-10T09:33:03.895Z,6.20
2018-05-10T09:34:03.861Z,4.50
2018-05-10T09:35:03.879Z,5.10
2018-05-10T09:36:03.838Z,5.50
2018-05-10T09:37:03.807Z,4.90
2018-05-10T09:38:03.819Z,5.30
2018-05-10T09:39:03.785Z,5.60
2018-05-10T09:40:03.800Z,5.60
2018-05-10T09:41:03.742Z,6.70
2018-05-10T09:42:03.756Z,6.20
2018-05-10T09:43:03.715Z,7.70
2018-05-10T09:44:03.726Z,12.00
2018-05-10T09:45:03.685Z,11.70
2018-05-10T09:46:03.689Z,12.30
2018-05-10T09:47:03.661Z,16.20
2018-05-10T09:48:03.663Z,12.80
2018-05-10T09:49:03.665Z,12.30
2018-05-10T09:50:03.629Z,13.30
2018-05-10T09:51:03.612Z,17.20
2018-05-10T09:52:03.616Z,13.80
2018-05-10T09:53:03.601Z,19.80
2018-05-10T09:54:03.602Z,14.40
2018-05-10T09:55:03.589Z,14.10
2018-05-10T09:56:03.552Z,15.50
2018-05-10T09:57:03.601Z,13.60
2018-05-10T09:58:03.525Z,12.70
2018-05-10T09:59:03.542Z,11.10
2018-05-10T10:00:03.503Z,13.90
2018-05-10T10:01:03.585Z,12.40
2018-05-10T10:02:03.466Z,8.50
2018-05-10T10:03:03.459Z,8.10
2018-05-10T10:04:03.443Z,9.10
2018-05-10T10:05:03.435Z,8.80
2018-05-10T10:06:03.416Z,9.60
2018-05-10T10:07:03.416Z,8.50
2018-05-10T10:08:03.604Z,7.00
2018-05-10T10:09:03.427Z,8.50
2018-05-10T10:10:03.391Z,5.90
2018-05-10T10:11:03.390Z,7.90
2018-05-10T10:12:03.349Z,5.10
2018-05-10T10:13:03.359Z,5.50
2018-05-10T10:14:03.362Z,5.00
2018-05-10T10:15:03.299Z,5.10
2018-05-10T10:16:03.361Z,7.90
2018-05-10T10:17:03.280Z,6.00
2018-05-10T10:18:03.273Z,5.50
2018-05-10T10:19:03.249Z,9.70
2018-05-10T10:20:03.263Z,8.50
2018-05-10T10:21:03.239Z,8.80
2018-05-10T10:22:03.220Z,16.10
2018-05-10T10:23:03.223Z,7.90
2018-05-10T10:24:03.185Z,5.10
2018-05-10T10:25:03.240Z,6.20
2018-05-10T10:26:03.265Z,4.70
2018-05-10T10:27:03.147Z,4.00
2018-05-10T10:28:03.135Z,6.40
2018-05-10T10:29:03.124Z,6.10
2018-05-10T10:30:03.166Z,5.90
2018-05-10T10:31:03.132Z,5.00
2018-05-10T10:32:03.097Z,3.60
2018-05-10T10:33:03.096Z,4.50
2018-05-10T10:34:03.077Z,6.80
2018-05-10T10:35:03.070Z,5.80
2018-05-10T10:36:03.055Z,5.90
2018-05-10T10:37:03.024Z,9.50
2018-05-10T10:38:03.015Z,7.20
2018-05-10T10:39:02.999Z,6.50
2018-05-10T10:40:03.076Z,7.10
2018-05-10T10:41:03.009Z,9.80
2018-05-10T10:42:03.026Z,5.80
2018-05-10T10:43:02.980Z,8.00
2018-05-10T10:44:02.932Z,8.10
2018-05-10T10:45:02.927Z,5.00
2018-05-10T10:46:02.922Z,7.60
2018-05-10T10:47:02.897Z,8.40
2018-05-10T10:48:02.908Z,9.90
2018-05-10T10:49:02.867Z,7.00
2018-05-10T10:50:02.879Z,8.60
2018-05-10T10:51:02.838Z,8.90
2018-05-10T10:52:02.833Z,8.50
2018-05-10T10:53:02.827Z,10.60
2018-05-10T10:54:02.807Z,8.70
2018-05-10T10:55:02.788Z,13.30
2018-05-10T10:56:02.777Z,9.80
2018-05-10T10:57:02.783Z,10.20
2018-05-10T10:58:02.754Z,10.30
2018-05-10T10:59:02.729Z,11.40
2018-05-10T11:00:02.818Z,14.00
2018-05-10T11:01:02.705Z,10.70
2018-05-10T11:02:02.692Z,11.90
2018-05-10T11:03:02.677Z,11.40
2018-05-10T11:04:02.670Z,9.80
2018-05-10T11:05:02.653Z,12.10
2018-05-10T11:06:02.640Z,11.60
2018-05-10T11:07:02.619Z,8.90
2018-05-10T11:08:02.615Z,12.20
2018-05-10T11:09:02.682Z,15.70
2018-05-10T11:10:02.585Z,10.10
2018-05-10T11:11:02.570Z,9.70
2018-05-10T11:12:02.570Z,13.50
2018-05-10T11:13:02.555Z,12.30
2018-05-10T11:14:02.535Z,12.00
2018-05-10T11:15:02.567Z,10.20
2018-05-10T11:16:02.528Z,12.20
2018-05-10T11:17:02.520Z,13.20
2018-05-10T11:18:02.501Z,12.40
2018-05-10T11:19:02.471Z,13.80
2018-05-10T11:20:02.450Z,11.00
2018-05-10T11:21:02.431Z,11.50
2018-05-10T11:22:02.425Z,13.20
2018-05-10T11:23:02.434Z,12.40
2018-05-10T11:24:02.390Z,11.70
2018-05-10T11:25:02.390Z,14.50
2018-05-10T11:26:02.367Z,12.10
2018-05-10T11:27:02.349Z,14.40
2018-05-10T11:28:02.358Z,13.90
2018-05-10T11:29:02.315Z,13.10
2018-05-10T11:30:02.307Z,11.30
2018-05-10T11:31:02.290Z,11.50
2018-05-10T11:32:02.315Z,13.80
2018-05-10T11:33:02.321Z,14.80
2018-05-10T11:34:02.251Z,18.60
2018-05-10T11:35:02.243Z,17.20
2018-05-10T11:36:02.221Z,20.50
2018-05-10T11:37:02.202Z,16.70
2018-05-10T11:38:02.220Z,18.10
2018-05-10T11:39:02.216Z,18.50
2018-05-10T11:40:02.159Z,14.90
2018-05-10T11:41:02.141Z,17.10
2018-05-10T11:42:02.140Z,19.00
2018-05-10T11:43:02.132Z,16.20
2018-05-10T11:44:02.101Z,15.70
2018-05-10T11:45:02.111Z,18.00
2018-05-10T11:46:02.077Z,16.30
2018-05-10T11:47:02.073Z,19.30
2018-05-10T11:48:02.049Z,19.50
2018-05-10T11:49:02.026Z,20.60
2018-05-10T11:50:02.012Z,19.50
2018-05-10T11:51:02.024Z,23.30
2018-05-10T11:52:02.003Z,20.90
2018-05-10T11:53:01.965Z,25.00
2018-05-10T11:54:01.966Z,27.10
2018-05-10T11:55:01.948Z,27.00
2018-05-10T11:56:01.938Z,26.70
2018-05-10T11:57:01.909Z,28.30
2018-05-10T11:58:01.891Z,28.00
2018-05-10T11:59:01.888Z,32.20
2018-05-10T12:00:01.920Z,32.50
2018-05-10T12:01:01.845Z,34.10
2018-05-10T12:02:01.841Z,35.00
2018-05-10T12:03:01.815Z,30.60
2018-05-10T12:04:01.825Z,31.70
2018-05-10T12:05:01.778Z,30.10
2018-05-10T12:06:01.823Z,28.50
2018-05-10T12:07:01.767Z,29.70
2018-05-10T12:08:01.742Z,28.50
2018-05-10T12:09:01.725Z,28.00
2018-05-10T12:10:01.724Z,28.90
2018-05-10T12:11:01.742Z,28.70
2018-05-10T12:12:01.670Z,26.80
2018-05-10T12:13:01.670Z,26.20
2018-05-10T12:14:01.671Z,27.20
2018-05-10T12:15:01.636Z,32.10
2018-05-10T12:16:01.627Z,26.20
2018-05-10T12:17:01.600Z,26.00
2018-05-10T12:18:01.596Z,34.90
2018-05-10T12:19:01.568Z,27.90
2018-05-10T12:20:01.551Z,25.60
2018-05-10T12:21:01.555Z,28.20
2018-05-10T12:22:01.520Z,29.80
2018-05-10T12:23:01.508Z,28.60
2018-05-10T12:24:01.486Z,27.70
2018-05-10T12:25:01.470Z,30.90
2018-05-10T12:26:01.485Z,27.60
2018-05-10T12:27:01.477Z,29.80
2018-05-10T12:28:01.579Z,30.00
2018-05-10T12:29:01.444Z,27.10
2018-05-10T12:30:01.394Z,30.40
2018-05-10T12:31:01.500Z,26.90
2018-05-10T12:32:01.385Z,26.20
2018-05-10T12:33:01.345Z,29.50
2018-05-10T12:34:01.355Z,32.90
2018-05-10T12:35:01.309Z,28.90
2018-05-10T12:36:01.297Z,28.80
2018-05-10T12:37:01.297Z,27.30
2018-05-10T12:38:01.296Z,31.70
2018-05-10T12:39:01.251Z,26.70
2018-05-10T12:40:01.232Z,29.70
2018-05-10T12:41:01.228Z,28.70
2018-05-10T12:42:01.224Z,25.90
2018-05-10T12:43:01.196Z,25.00
2018-05-10T12:44:01.177Z,31.60
2018-05-10T12:45:01.157Z,31.70
2018-05-10T12:46:01.133Z,32.60
2018-05-10T12:47:01.129Z,33.90
2018-05-10T12:48:01.103Z,31.40
2018-05-10T12:49:01.123Z,31.20
2018-05-10T12:50:01.084Z,33.30
2018-05-10T12:51:01.059Z,30.10
2018-05-10T12:52:01.089Z,30.20
2018-05-10T12:53:01.036Z,31.30
2018-05-10T12:54:01.017Z,30.30
2018-05-10T12:55:00.994Z,33.00